sensor_id;sensor_type;location;lat;lon;timestamp;temperature;humidity
1277;DHT22;631;51.024;13.826;2024-03-22T00:00:04;10.20;99.90
1277;DHT22;631;51.024;13.826;2024-03-22T00:02:30;10.30;99.90
1277;DHT22;631;51.024;13.826;2024-03-22T00:04:56;10.20;99.90
1277;DHT22;631;51.024;13.826;2024-03-22T00:07:21;10.30;99.90
1277;DHT22;631;51.024;13.826;2024-03-22T00:09:47;10.30;99.90
1277;DHT22;631;51.024;13.826;2024-03-22T00:12:13;10.30;99.90
1277;DHT22;631;51.024;13.826;2024-03-22T00:14:38;10.30;99.90
1277;DHT22;631;51.024;13.826;2024-03-22T00:17:04;10.30;99.90
1277;DHT22;631;51.024;13.826;2024-03-22T00:19:31;10.30;1.00
1277;DHT22;631;51.024;13.826;2024-03-22T00:21:56;10.20;1.00
1277;DHT22;631;51.024;13.826;2024-03-22T00:24:22;10.20;1.00
1277;DHT22;631;51.024;13.826;2024-03-22T00:26:47;10.20;1.00
1277;DHT22;631;51.024;13.826;2024-03-22T00:29:13;10.20;1.00
1277;DHT22;631;51.024;13.826;2024-03-22T00:31:38;10.30;1.00
1277;DHT22;631;51.024;13.826;2024-03-22T00:34:04;10.30;1.00
1277;DHT22;631;51.024;13.826;2024-03-22T00:36:30;10.30;1.00
1277;DHT22;631;51.024;13.826;2024-03-22T00:38:55;10.20;1.00
1277;DHT22;631;51.024;13.826;2024-03-22T00:41:22;10.20;1.00
1277;DHT22;631;51.024;13.826;2024-03-22T00:43:47;10.20;1.00
1277;DHT22;631;51.024;13.826;2024-03-22T00:46:13;10.10;1.00
1277;DHT22;631;51.024;13.826;2024-03-22T00:48:39;10.20;1.00
1277;DHT22;631;51.024;13.826;2024-03-22T00:51:04;10.10;1.00
1277;DHT22;631;51.024;13.826;2024-03-22T00:53:30;10.10;1.00
1277;DHT22;631;51.024;13.826;2024-03-22T00:55:56;10.00;99.90
1277;DHT22;631;51.024;13.826;2024-03-22T00:58:25;10.00;99.90
1277;DHT22;631;51.024;13.826;2024-03-22T01:00:50;9.90;99.90
1277;DHT22;631;51.024;13.826;2024-03-22T01:03:16;9.90;99.90
1277;DHT22;631;51.024;13.826;2024-03-22T01:05:42;9.90;99.90
1277;DHT22;631;51.024;13.826;2024-03-22T01:08:08;10.00;99.90
1277;DHT22;631;51.024;13.826;2024-03-22T01:10:34;10.00;99.90
1277;DHT22;631;51.024;13.826;2024-03-22T01:13:00;10.00;99.90
1277;DHT22;631;51.024;13.826;2024-03-22T01:15:26;10.00;99.90
1277;DHT22;631;51.024;13.826;2024-03-22T01:17:52;10.00;99.90
1277;DHT22;631;51.024;13.826;2024-03-22T01:20:18;10.00;99.90
1277;DHT22;631;51.024;13.826;2024-03-22T01:22:43;10.00;58.40
1277;DHT22;631;51.024;13.826;2024-03-22T01:25:09;10.00;93.30
1277;DHT22;631;51.024;13.826;2024-03-22T01:27:37;10.00;12.80
1277;DHT22;631;51.024;13.826;2024-03-22T01:30:04;10.00;48.80
1277;DHT22;631;51.024;13.826;2024-03-22T01:32:29;9.90;69.60
1277;DHT22;631;51.024;13.826;2024-03-22T01:34:57;9.90;94.60
1277;DHT22;631;51.024;13.826;2024-03-22T01:37:22;9.90;99.90
1277;DHT22;631;51.024;13.826;2024-03-22T01:39:48;9.80;99.90
1277;DHT22;631;51.024;13.826;2024-03-22T01:42:13;9.80;99.90
1277;DHT22;631;51.024;13.826;2024-03-22T01:44:39;9.80;99.90
1277;DHT22;631;51.024;13.826;2024-03-22T01:47:04;9.80;99.90
1277;DHT22;631;51.024;13.826;2024-03-22T01:49:30;9.70;99.90
1277;DHT22;631;51.024;13.826;2024-03-22T01:51:56;9.70;99.90
1277;DHT22;631;51.024;13.826;2024-03-22T01:54:22;9.70;99.90
1277;DHT22;631;51.024;13.826;2024-03-22T01:56:48;9.70;99.90
1277;DHT22;631;51.024;13.826;2024-03-22T01:59:14;9.60;99.90
1277;DHT22;631;51.024;13.826;2024-03-22T02:01:40;9.60;99.90
1277;DHT22;631;51.024;13.826;2024-03-22T02:04:06;9.60;1.00
1277;DHT22;631;51.024;13.826;2024-03-22T02:06:32;9.60;1.00
1277;DHT22;631;51.024;13.826;2024-03-22T02:08:58;9.60;99.90
1277;DHT22;631;51.024;13.826;2024-03-22T02:11:25;9.60;99.90
1277;DHT22;631;51.024;13.826;2024-03-22T02:13:51;9.60;99.90
1277;DHT22;631;51.024;13.826;2024-03-22T02:16:16;9.50;99.90
1277;DHT22;631;51.024;13.826;2024-03-22T02:18:42;9.50;99.90
1277;DHT22;631;51.024;13.826;2024-03-22T02:21:08;9.50;99.90
1277;DHT22;631;51.024;13.826;2024-03-22T02:23:34;9.40;99.90
1277;DHT22;631;51.024;13.826;2024-03-22T02:26:01;9.50;1.00
1277;DHT22;631;51.024;13.826;2024-03-22T02:28:27;9.40;1.00
1277;DHT22;631;51.024;13.826;2024-03-22T02:30:52;9.40;1.00
1277;DHT22;631;51.024;13.826;2024-03-22T02:33:18;9.40;1.00
1277;DHT22;631;51.024;13.826;2024-03-22T02:35:46;9.40;1.00
1277;DHT22;631;51.024;13.826;2024-03-22T02:38:12;9.40;1.00
1277;DHT22;631;51.024;13.826;2024-03-22T02:40:37;9.30;1.00
1277;DHT22;631;51.024;13.826;2024-03-22T02:43:03;9.30;1.00
1277;DHT22;631;51.024;13.826;2024-03-22T02:45:30;9.40;1.00
1277;DHT22;631;51.024;13.826;2024-03-22T02:47:56;9.40;1.00
1277;DHT22;631;51.024;13.826;2024-03-22T02:50:22;9.30;1.00
1277;DHT22;631;51.024;13.826;2024-03-22T02:52:50;9.30;1.00
1277;DHT22;631;51.024;13.826;2024-03-22T02:55:16;9.30;1.00
1277;DHT22;631;51.024;13.826;2024-03-22T02:57:42;9.30;1.00
1277;DHT22;631;51.024;13.826;2024-03-22T03:00:08;9.20;8.20
1277;DHT22;631;51.024;13.826;2024-03-22T03:02:35;9.20;19.80
1277;DHT22;631;51.024;13.826;2024-03-22T03:05:01;9.20;19.70
1277;DHT22;631;51.024;13.826;2024-03-22T03:07:27;9.20;1.00
1277;DHT22;631;51.024;13.826;2024-03-22T03:09:55;9.20;1.00
1277;DHT22;631;51.024;13.826;2024-03-22T03:12:21;9.20;1.10
1277;DHT22;631;51.024;13.826;2024-03-22T03:14:46;9.10;96.10
1277;DHT22;631;51.024;13.826;2024-03-22T03:17:12;9.20;1.00
1277;DHT22;631;51.024;13.826;2024-03-22T03:19:37;9.10;1.00
1277;DHT22;631;51.024;13.826;2024-03-22T03:22:03;9.10;1.00
1277;DHT22;631;51.024;13.826;2024-03-22T03:24:29;9.10;1.00
1277;DHT22;631;51.024;13.826;2024-03-22T03:26:55;9.10;1.00
1277;DHT22;631;51.024;13.826;2024-03-22T03:29:20;9.10;1.00
1277;DHT22;631;51.024;13.826;2024-03-22T03:31:46;9.10;99.90
1277;DHT22;631;51.024;13.826;2024-03-22T03:34:11;9.10;99.90
1277;DHT22;631;51.024;13.826;2024-03-22T03:36:37;9.10;99.90
1277;DHT22;631;51.024;13.826;2024-03-22T03:39:03;9.10;99.90
1277;DHT22;631;51.024;13.826;2024-03-22T03:41:29;9.00;1.00
1277;DHT22;631;51.024;13.826;2024-03-22T03:43:55;9.00;1.00
1277;DHT22;631;51.024;13.826;2024-03-22T03:46:20;9.00;1.00
1277;DHT22;631;51.024;13.826;2024-03-22T03:48:46;9.10;1.00
1277;DHT22;631;51.024;13.826;2024-03-22T03:51:12;9.00;99.90
1277;DHT22;631;51.024;13.826;2024-03-22T03:53:37;9.00;99.90
1277;DHT22;631;51.024;13.826;2024-03-22T03:56:03;9.00;99.90
1277;DHT22;631;51.024;13.826;2024-03-22T03:58:29;9.00;1.00
1277;DHT22;631;51.024;13.826;2024-03-22T04:00:54;9.00;99.90
1277;DHT22;631;51.024;13.826;2024-03-22T04:03:20;8.90;99.90
1277;DHT22;631;51.024;13.826;2024-03-22T04:05:45;8.90;1.00
1277;DHT22;631;51.024;13.826;2024-03-22T04:08:11;8.90;1.00
1277;DHT22;631;51.024;13.826;2024-03-22T04:10:37;8.80;1.00
1277;DHT22;631;51.024;13.826;2024-03-22T04:13:02;8.80;99.90
1277;DHT22;631;51.024;13.826;2024-03-22T04:15:28;8.80;1.00
1277;DHT22;631;51.024;13.826;2024-03-22T04:17:56;8.80;1.00
1277;DHT22;631;51.024;13.826;2024-03-22T04:20:22;8.80;18.30
1277;DHT22;631;51.024;13.826;2024-03-22T04:22:47;8.80;28.10
1277;DHT22;631;51.024;13.826;2024-03-22T04:25:15;8.80;25.60
1277;DHT22;631;51.024;13.826;2024-03-22T04:27:40;8.80;11.30
1277;DHT22;631;51.024;13.826;2024-03-22T04:30:06;8.80;1.00
1277;DHT22;631;51.024;13.826;2024-03-22T04:32:32;8.80;99.90
1277;DHT22;631;51.024;13.826;2024-03-22T04:34:58;8.70;73.10
1277;DHT22;631;51.024;13.826;2024-03-22T04:37:23;8.70;99.90
1277;DHT22;631;51.024;13.826;2024-03-22T04:39:49;8.70;76.40
1277;DHT22;631;51.024;13.826;2024-03-22T04:42:15;8.60;99.90
1277;DHT22;631;51.024;13.826;2024-03-22T04:44:41;8.70;99.90
1277;DHT22;631;51.024;13.826;2024-03-22T04:47:07;8.70;99.90
1277;DHT22;631;51.024;13.826;2024-03-22T04:49:33;8.60;99.90
1277;DHT22;631;51.024;13.826;2024-03-22T04:51:58;8.60;99.90
1277;DHT22;631;51.024;13.826;2024-03-22T04:54:24;8.50;99.90
1277;DHT22;631;51.024;13.826;2024-03-22T04:56:50;8.50;99.90
1277;DHT22;631;51.024;13.826;2024-03-22T04:59:15;8.40;1.00
1277;DHT22;631;51.024;13.826;2024-03-22T05:01:42;8.40;1.00
1277;DHT22;631;51.024;13.826;2024-03-22T05:04:09;8.40;1.00
1277;DHT22;631;51.024;13.826;2024-03-22T05:06:35;8.30;1.00
1277;DHT22;631;51.024;13.826;2024-03-22T05:09:00;8.30;1.00
1277;DHT22;631;51.024;13.826;2024-03-22T05:11:26;8.30;1.00
1277;DHT22;631;51.024;13.826;2024-03-22T05:13:52;8.30;1.00
1277;DHT22;631;51.024;13.826;2024-03-22T05:16:17;8.30;1.00
1277;DHT22;631;51.024;13.826;2024-03-22T05:18:43;8.30;1.00
1277;DHT22;631;51.024;13.826;2024-03-22T05:21:09;8.40;1.00
1277;DHT22;631;51.024;13.826;2024-03-22T05:23:34;8.40;1.00
1277;DHT22;631;51.024;13.826;2024-03-22T05:26:00;8.30;1.00
1277;DHT22;631;51.024;13.826;2024-03-22T05:28:26;8.30;1.00
1277;DHT22;631;51.024;13.826;2024-03-22T05:30:51;8.40;1.00
1277;DHT22;631;51.024;13.826;2024-03-22T05:33:17;8.30;1.00
1277;DHT22;631;51.024;13.826;2024-03-22T05:35:42;8.30;1.00
1277;DHT22;631;51.024;13.826;2024-03-22T05:38:08;8.40;1.00
1277;DHT22;631;51.024;13.826;2024-03-22T05:40:36;8.40;1.00
1277;DHT22;631;51.024;13.826;2024-03-22T05:43:04;8.50;1.00
1277;DHT22;631;51.024;13.826;2024-03-22T05:45:30;8.50;1.00
1277;DHT22;631;51.024;13.826;2024-03-22T05:47:55;8.60;1.00
1277;DHT22;631;51.024;13.826;2024-03-22T05:50:21;8.70;1.00
1277;DHT22;631;51.024;13.826;2024-03-22T05:52:47;8.70;99.90
1277;DHT22;631;51.024;13.826;2024-03-22T05:55:12;8.70;99.90
1277;DHT22;631;51.024;13.826;2024-03-22T05:57:38;8.80;99.90
1277;DHT22;631;51.024;13.826;2024-03-22T06:00:05;8.80;99.90
1277;DHT22;631;51.024;13.826;2024-03-22T06:02:32;8.90;19.80
1277;DHT22;631;51.024;13.826;2024-03-22T06:04:58;9.00;1.00
1277;DHT22;631;51.024;13.826;2024-03-22T06:07:24;9.00;1.00
1277;DHT22;631;51.024;13.826;2024-03-22T06:09:50;9.00;99.90
1277;DHT22;631;51.024;13.826;2024-03-22T06:12:18;9.10;99.90
1277;DHT22;631;51.024;13.826;2024-03-22T06:14:44;9.20;99.90
1277;DHT22;631;51.024;13.826;2024-03-22T06:17:10;9.30;1.00
1277;DHT22;631;51.024;13.826;2024-03-22T06:19:36;9.40;1.00
1277;DHT22;631;51.024;13.826;2024-03-22T06:22:02;9.50;99.90
1277;DHT22;631;51.024;13.826;2024-03-22T06:24:28;9.50;1.00
1277;DHT22;631;51.024;13.826;2024-03-22T06:26:54;9.60;1.00
1277;DHT22;631;51.024;13.826;2024-03-22T06:29:19;9.70;99.90
1277;DHT22;631;51.024;13.826;2024-03-22T06:31:45;9.80;99.90
1277;DHT22;631;51.024;13.826;2024-03-22T06:34:11;9.90;79.20
1277;DHT22;631;51.024;13.826;2024-03-22T06:36:36;10.00;1.00
1277;DHT22;631;51.024;13.826;2024-03-22T06:39:02;10.10;1.00
1277;DHT22;631;51.024;13.826;2024-03-22T06:41:32;10.20;99.90
1277;DHT22;631;51.024;13.826;2024-03-22T06:43:58;10.30;35.30
1277;DHT22;631;51.024;13.826;2024-03-22T06:46:24;10.40;1.00
1277;DHT22;631;51.024;13.826;2024-03-22T06:48:50;10.60;1.00
1277;DHT22;631;51.024;13.826;2024-03-22T06:51:16;10.70;99.90
1277;DHT22;631;51.024;13.826;2024-03-22T06:53:42;10.70;13.00
1277;DHT22;631;51.024;13.826;2024-03-22T06:56:07;10.90;1.00
1277;DHT22;631;51.024;13.826;2024-03-22T06:58:38;11.00;99.90
1277;DHT22;631;51.024;13.826;2024-03-22T07:01:04;11.10;99.90
1277;DHT22;631;51.024;13.826;2024-03-22T07:03:29;11.10;58.60
1277;DHT22;631;51.024;13.826;2024-03-22T07:05:55;11.30;15.10
1277;DHT22;631;51.024;13.826;2024-03-22T07:08:21;11.30;1.00
1277;DHT22;631;51.024;13.826;2024-03-22T07:10:46;11.50;1.00
1277;DHT22;631;51.024;13.826;2024-03-22T07:13:12;11.60;1.00
1277;DHT22;631;51.024;13.826;2024-03-22T07:15:38;11.70;99.90
1277;DHT22;631;51.024;13.826;2024-03-22T07:18:04;11.80;99.90
1277;DHT22;631;51.024;13.826;2024-03-22T07:20:30;11.90;99.90
1277;DHT22;631;51.024;13.826;2024-03-22T07:22:56;12.00;99.90
1277;DHT22;631;51.024;13.826;2024-03-22T07:25:22;12.00;99.90
1277;DHT22;631;51.024;13.826;2024-03-22T07:27:47;12.20;99.90
1277;DHT22;631;51.024;13.826;2024-03-22T07:30:14;12.30;12.50
1277;DHT22;631;51.024;13.826;2024-03-22T07:32:40;12.40;1.00
1277;DHT22;631;51.024;13.826;2024-03-22T07:35:05;12.40;1.00
1277;DHT22;631;51.024;13.826;2024-03-22T07:37:32;12.50;1.00
1277;DHT22;631;51.024;13.826;2024-03-22T07:39:59;12.70;1.00
1277;DHT22;631;51.024;13.826;2024-03-22T07:42:25;12.70;1.00
1277;DHT22;631;51.024;13.826;2024-03-22T07:44:50;12.90;1.00
1277;DHT22;631;51.024;13.826;2024-03-22T07:47:16;12.90;1.00
1277;DHT22;631;51.024;13.826;2024-03-22T07:49:42;13.00;99.90
1277;DHT22;631;51.024;13.826;2024-03-22T07:52:07;13.10;99.90
1277;DHT22;631;51.024;13.826;2024-03-22T07:54:33;13.20;99.90
1277;DHT22;631;51.024;13.826;2024-03-22T07:56:58;13.30;99.90
1277;DHT22;631;51.024;13.826;2024-03-22T07:59:24;13.40;99.90
1277;DHT22;631;51.024;13.826;2024-03-22T08:01:50;13.50;99.90
1277;DHT22;631;51.024;13.826;2024-03-22T08:04:16;13.60;99.90
1277;DHT22;631;51.024;13.826;2024-03-22T08:06:41;13.70;79.90
1277;DHT22;631;51.024;13.826;2024-03-22T08:09:07;13.80;57.50
1277;DHT22;631;51.024;13.826;2024-03-22T08:11:33;13.90;20.40
1277;DHT22;631;51.024;13.826;2024-03-22T08:13:59;13.90;1.00
1277;DHT22;631;51.024;13.826;2024-03-22T08:16:28;13.90;1.00
1277;DHT22;631;51.024;13.826;2024-03-22T08:18:54;14.00;1.00
1277;DHT22;631;51.024;13.826;2024-03-22T08:21:19;14.10;1.00
1277;DHT22;631;51.024;13.826;2024-03-22T08:23:45;13.90;1.00
1277;DHT22;631;51.024;13.826;2024-03-22T08:26:11;14.00;1.00
1277;DHT22;631;51.024;13.826;2024-03-22T08:28:37;14.10;1.00
1277;DHT22;631;51.024;13.826;2024-03-22T08:31:04;14.10;1.00
1277;DHT22;631;51.024;13.826;2024-03-22T08:33:30;14.10;1.00
1277;DHT22;631;51.024;13.826;2024-03-22T08:35:56;14.00;1.00
1277;DHT22;631;51.024;13.826;2024-03-22T08:38:21;13.80;1.00
1277;DHT22;631;51.024;13.826;2024-03-22T08:40:47;14.00;1.00
1277;DHT22;631;51.024;13.826;2024-03-22T08:43:13;14.10;1.00
1277;DHT22;631;51.024;13.826;2024-03-22T08:45:39;14.20;1.00
1277;DHT22;631;51.024;13.826;2024-03-22T08:48:05;14.40;1.00
1277;DHT22;631;51.024;13.826;2024-03-22T08:50:30;14.50;1.00
1277;DHT22;631;51.024;13.826;2024-03-22T08:52:56;14.70;1.00
1277;DHT22;631;51.024;13.826;2024-03-22T08:55:22;14.80;1.00
1277;DHT22;631;51.024;13.826;2024-03-22T08:57:47;14.80;1.00
1277;DHT22;631;51.024;13.826;2024-03-22T09:00:14;14.90;1.00
1277;DHT22;631;51.024;13.826;2024-03-22T09:02:39;14.90;1.00
1277;DHT22;631;51.024;13.826;2024-03-22T09:05:06;14.80;1.00
1277;DHT22;631;51.024;13.826;2024-03-22T09:07:31;15.00;1.00
1277;DHT22;631;51.024;13.826;2024-03-22T09:09:57;15.00;1.00
1277;DHT22;631;51.024;13.826;2024-03-22T09:12:23;14.90;1.00
1277;DHT22;631;51.024;13.826;2024-03-22T09:14:48;15.20;1.00
1277;DHT22;631;51.024;13.826;2024-03-22T09:17:14;15.20;1.00
1277;DHT22;631;51.024;13.826;2024-03-22T09:19:40;15.30;1.00
1277;DHT22;631;51.024;13.826;2024-03-22T09:22:05;15.60;1.00
1277;DHT22;631;51.024;13.826;2024-03-22T09:24:31;15.70;1.00
1277;DHT22;631;51.024;13.826;2024-03-22T09:26:57;15.90;1.00
1277;DHT22;631;51.024;13.826;2024-03-22T09:29:23;16.00;1.00
1277;DHT22;631;51.024;13.826;2024-03-22T09:31:49;16.40;1.00
1277;DHT22;631;51.024;13.826;2024-03-22T09:34:16;16.70;1.00
1277;DHT22;631;51.024;13.826;2024-03-22T09:36:42;16.80;1.00
1277;DHT22;631;51.024;13.826;2024-03-22T09:39:07;17.30;1.00
1277;DHT22;631;51.024;13.826;2024-03-22T09:41:39;17.90;1.00
1277;DHT22;631;51.024;13.826;2024-03-22T09:44:12;18.30;99.90
1277;DHT22;631;51.024;13.826;2024-03-22T09:46:40;18.10;99.90
1277;DHT22;631;51.024;13.826;2024-03-22T09:49:06;18.30;99.90
1277;DHT22;631;51.024;13.826;2024-03-22T09:51:33;18.60;99.90
1277;DHT22;631;51.024;13.826;2024-03-22T09:54:00;19.00;99.90
1277;DHT22;631;51.024;13.826;2024-03-22T09:56:28;19.20;99.90
1277;DHT22;631;51.024;13.826;2024-03-22T09:58:55;19.20;99.90
1277;DHT22;631;51.024;13.826;2024-03-22T10:01:21;19.40;99.90
1277;DHT22;631;51.024;13.826;2024-03-22T10:03:49;18.50;99.90
1277;DHT22;631;51.024;13.826;2024-03-22T10:06:15;18.70;99.90
1277;DHT22;631;51.024;13.826;2024-03-22T10:08:41;19.50;99.90
1277;DHT22;631;51.024;13.826;2024-03-22T10:11:07;20.30;99.90
1277;DHT22;631;51.024;13.826;2024-03-22T10:13:32;21.00;99.90
1277;DHT22;631;51.024;13.826;2024-03-22T10:15:58;21.90;99.90
1277;DHT22;631;51.024;13.826;2024-03-22T10:18:23;22.70;99.90
1277;DHT22;631;51.024;13.826;2024-03-22T10:21:05;23.10;99.90
1277;DHT22;631;51.024;13.826;2024-03-22T10:23:31;23.20;99.90
1277;DHT22;631;51.024;13.826;2024-03-22T10:25:58;22.80;99.90
1277;DHT22;631;51.024;13.826;2024-03-22T10:28:27;23.00;99.90
1277;DHT22;631;51.024;13.826;2024-03-22T10:30:53;22.70;99.90
1277;DHT22;631;51.024;13.826;2024-03-22T10:33:20;22.10;99.90
1277;DHT22;631;51.024;13.826;2024-03-22T10:35:53;21.20;99.90
1277;DHT22;631;51.024;13.826;2024-03-22T10:38:20;20.50;99.90
1277;DHT22;631;51.024;13.826;2024-03-22T10:40:46;20.00;99.90
1277;DHT22;631;51.024;13.826;2024-03-22T10:43:13;19.80;99.90
1277;DHT22;631;51.024;13.826;2024-03-22T10:45:40;19.80;99.90
1277;DHT22;631;51.024;13.826;2024-03-22T10:48:09;20.00;99.90
1277;DHT22;631;51.024;13.826;2024-03-22T10:50:40;20.10;99.90
1277;DHT22;631;51.024;13.826;2024-03-22T10:53:11;20.00;99.90
1277;DHT22;631;51.024;13.826;2024-03-22T10:55:42;19.90;99.90
1277;DHT22;631;51.024;13.826;2024-03-22T10:58:18;20.00;99.90
1277;DHT22;631;51.024;13.826;2024-03-22T11:00:46;20.40;99.90
1277;DHT22;631;51.024;13.826;2024-03-22T11:03:13;21.00;99.90
1277;DHT22;631;51.024;13.826;2024-03-22T11:05:46;21.70;99.90
1277;DHT22;631;51.024;13.826;2024-03-22T11:08:11;22.00;99.90
1277;DHT22;631;51.024;13.826;2024-03-22T11:10:37;22.00;99.90
1277;DHT22;631;51.024;13.826;2024-03-22T11:13:04;21.60;99.90
1277;DHT22;631;51.024;13.826;2024-03-22T11:15:30;21.40;99.90
1277;DHT22;631;51.024;13.826;2024-03-22T11:17:57;20.80;99.90
1277;DHT22;631;51.024;13.826;2024-03-22T11:20:23;20.30;99.90
1277;DHT22;631;51.024;13.826;2024-03-22T11:22:50;20.00;99.90
1277;DHT22;631;51.024;13.826;2024-03-22T11:25:16;19.80;99.90
1277;DHT22;631;51.024;13.826;2024-03-22T11:27:41;19.40;99.90
1277;DHT22;631;51.024;13.826;2024-03-22T11:30:07;19.30;99.90
1277;DHT22;631;51.024;13.826;2024-03-22T11:32:33;19.20;99.90
1277;DHT22;631;51.024;13.826;2024-03-22T11:35:11;19.10;99.90
1277;DHT22;631;51.024;13.826;2024-03-22T11:37:40;19.00;99.90
1277;DHT22;631;51.024;13.826;2024-03-22T11:40:10;18.90;99.90
1277;DHT22;631;51.024;13.826;2024-03-22T11:42:46;18.80;99.90
1277;DHT22;631;51.024;13.826;2024-03-22T11:45:14;18.80;99.90
1277;DHT22;631;51.024;13.826;2024-03-22T11:47:40;18.70;99.90
1277;DHT22;631;51.024;13.826;2024-03-22T11:50:06;18.70;99.90
1277;DHT22;631;51.024;13.826;2024-03-22T11:52:32;18.70;99.90
1277;DHT22;631;51.024;13.826;2024-03-22T11:54:57;18.80;99.90
1277;DHT22;631;51.024;13.826;2024-03-22T11:57:24;18.90;99.90
1277;DHT22;631;51.024;13.826;2024-03-22T11:59:50;18.80;99.90
1277;DHT22;631;51.024;13.826;2024-03-22T12:02:16;18.80;99.90
1277;DHT22;631;51.024;13.826;2024-03-22T12:04:45;18.80;99.90
1277;DHT22;631;51.024;13.826;2024-03-22T12:07:11;18.90;99.90
1277;DHT22;631;51.024;13.826;2024-03-22T12:09:38;19.00;99.90
1277;DHT22;631;51.024;13.826;2024-03-22T12:12:06;19.30;99.90
1277;DHT22;631;51.024;13.826;2024-03-22T12:14:33;19.30;99.90
1277;DHT22;631;51.024;13.826;2024-03-22T12:16:58;19.20;99.90
1277;DHT22;631;51.024;13.826;2024-03-22T12:19:24;19.40;99.90
1277;DHT22;631;51.024;13.826;2024-03-22T12:21:50;19.80;99.90
1277;DHT22;631;51.024;13.826;2024-03-22T12:24:15;20.10;99.90
1277;DHT22;631;51.024;13.826;2024-03-22T12:26:41;20.10;99.90
1277;DHT22;631;51.024;13.826;2024-03-22T12:29:06;20.30;99.90
1277;DHT22;631;51.024;13.826;2024-03-22T12:31:32;20.50;99.90
1277;DHT22;631;51.024;13.826;2024-03-22T12:33:58;20.80;99.90
1277;DHT22;631;51.024;13.826;2024-03-22T12:36:24;21.00;99.90
1277;DHT22;631;51.024;13.826;2024-03-22T12:38:50;21.10;99.90
1277;DHT22;631;51.024;13.826;2024-03-22T12:41:16;21.10;99.90
1277;DHT22;631;51.024;13.826;2024-03-22T12:43:42;21.00;99.90
1277;DHT22;631;51.024;13.826;2024-03-22T12:46:08;20.80;99.90
1277;DHT22;631;51.024;13.826;2024-03-22T12:48:34;20.50;99.90
1277;DHT22;631;51.024;13.826;2024-03-22T12:51:00;20.50;99.90
1277;DHT22;631;51.024;13.826;2024-03-22T12:53:25;20.50;99.90
1277;DHT22;631;51.024;13.826;2024-03-22T12:55:51;20.40;99.90
1277;DHT22;631;51.024;13.826;2024-03-22T12:58:17;20.00;99.90
1277;DHT22;631;51.024;13.826;2024-03-22T13:00:42;19.90;99.90
1277;DHT22;631;51.024;13.826;2024-03-22T13:03:08;19.80;99.90
1277;DHT22;631;51.024;13.826;2024-03-22T13:05:35;19.60;99.90
1277;DHT22;631;51.024;13.826;2024-03-22T13:08:01;19.50;99.90
1277;DHT22;631;51.024;13.826;2024-03-22T13:10:27;19.60;99.90
1277;DHT22;631;51.024;13.826;2024-03-22T13:12:52;19.60;99.90
1277;DHT22;631;51.024;13.826;2024-03-22T13:15:18;19.20;99.90
1277;DHT22;631;51.024;13.826;2024-03-22T13:17:44;19.00;99.90
1277;DHT22;631;51.024;13.826;2024-03-22T13:20:10;18.70;99.90
1277;DHT22;631;51.024;13.826;2024-03-22T13:22:40;18.80;99.90
1277;DHT22;631;51.024;13.826;2024-03-22T13:25:06;18.80;99.90
1277;DHT22;631;51.024;13.826;2024-03-22T13:27:35;18.90;99.90
1277;DHT22;631;51.024;13.826;2024-03-22T13:30:02;18.90;99.90
1277;DHT22;631;51.024;13.826;2024-03-22T13:32:28;18.90;99.90
1277;DHT22;631;51.024;13.826;2024-03-22T13:34:53;18.80;99.90
1277;DHT22;631;51.024;13.826;2024-03-22T13:37:19;18.80;99.90
1277;DHT22;631;51.024;13.826;2024-03-22T13:39:51;18.50;99.90
1277;DHT22;631;51.024;13.826;2024-03-22T13:42:16;18.50;99.90
1277;DHT22;631;51.024;13.826;2024-03-22T13:44:42;18.50;99.90
1277;DHT22;631;51.024;13.826;2024-03-22T13:47:08;18.50;99.90
1277;DHT22;631;51.024;13.826;2024-03-22T13:49:34;18.60;99.90
1277;DHT22;631;51.024;13.826;2024-03-22T13:51:59;18.70;99.90
1277;DHT22;631;51.024;13.826;2024-03-22T13:54:25;18.80;99.90
1277;DHT22;631;51.024;13.826;2024-03-22T13:56:51;18.70;99.90
1277;DHT22;631;51.024;13.826;2024-03-22T13:59:16;18.80;99.90
1277;DHT22;631;51.024;13.826;2024-03-22T14:01:42;18.80;99.90
1277;DHT22;631;51.024;13.826;2024-03-22T14:04:11;18.50;99.90
1277;DHT22;631;51.024;13.826;2024-03-22T14:06:38;18.20;99.90
1277;DHT22;631;51.024;13.826;2024-03-22T14:09:03;18.10;99.90
1277;DHT22;631;51.024;13.826;2024-03-22T14:11:30;18.20;99.90
1277;DHT22;631;51.024;13.826;2024-03-22T14:13:57;18.20;99.90
1277;DHT22;631;51.024;13.826;2024-03-22T14:16:22;18.30;99.90
1277;DHT22;631;51.024;13.826;2024-03-22T14:18:48;18.30;99.90
1277;DHT22;631;51.024;13.826;2024-03-22T14:21:15;18.30;99.90
1277;DHT22;631;51.024;13.826;2024-03-22T14:23:46;18.20;99.90
1277;DHT22;631;51.024;13.826;2024-03-22T14:26:11;18.00;99.90
1277;DHT22;631;51.024;13.826;2024-03-22T14:28:38;17.70;99.90
1277;DHT22;631;51.024;13.826;2024-03-22T14:31:06;17.70;99.90
1277;DHT22;631;51.024;13.826;2024-03-22T14:33:34;17.80;99.90
1277;DHT22;631;51.024;13.826;2024-03-22T14:36:01;18.00;99.90
1277;DHT22;631;51.024;13.826;2024-03-22T14:38:26;17.90;99.90
1277;DHT22;631;51.024;13.826;2024-03-22T14:40:52;17.80;99.90
1277;DHT22;631;51.024;13.826;2024-03-22T14:43:18;17.80;99.90
1277;DHT22;631;51.024;13.826;2024-03-22T14:45:44;17.80;99.90
1277;DHT22;631;51.024;13.826;2024-03-22T14:48:09;17.70;99.90
1277;DHT22;631;51.024;13.826;2024-03-22T14:50:38;17.70;99.90
1277;DHT22;631;51.024;13.826;2024-03-22T14:53:04;17.70;99.90
1277;DHT22;631;51.024;13.826;2024-03-22T14:55:30;17.70;99.90
1277;DHT22;631;51.024;13.826;2024-03-22T14:57:56;17.70;99.90
1277;DHT22;631;51.024;13.826;2024-03-22T15:00:22;17.80;99.90
1277;DHT22;631;51.024;13.826;2024-03-22T15:02:52;17.80;99.90
1277;DHT22;631;51.024;13.826;2024-03-22T15:05:17;17.60;99.90
1277;DHT22;631;51.024;13.826;2024-03-22T15:07:43;17.60;99.90
1277;DHT22;631;51.024;13.826;2024-03-22T15:10:09;17.50;99.90
1277;DHT22;631;51.024;13.826;2024-03-22T15:12:34;17.40;99.90
1277;DHT22;631;51.024;13.826;2024-03-22T15:15:00;17.30;99.90
1277;DHT22;631;51.024;13.826;2024-03-22T15:17:25;17.40;99.90
1277;DHT22;631;51.024;13.826;2024-03-22T15:19:51;17.40;99.90
1277;DHT22;631;51.024;13.826;2024-03-22T15:22:17;17.50;99.90
1277;DHT22;631;51.024;13.826;2024-03-22T15:24:45;17.50;99.90
1277;DHT22;631;51.024;13.826;2024-03-22T15:27:11;17.40;99.90
1277;DHT22;631;51.024;13.826;2024-03-22T15:29:37;17.10;99.90
1277;DHT22;631;51.024;13.826;2024-03-22T15:32:04;17.00;99.90
1277;DHT22;631;51.024;13.826;2024-03-22T15:34:30;17.00;99.90
1277;DHT22;631;51.024;13.826;2024-03-22T15:36:55;17.00;99.90
1277;DHT22;631;51.024;13.826;2024-03-22T15:39:21;17.00;99.90
1277;DHT22;631;51.024;13.826;2024-03-22T15:41:47;16.90;99.90
1277;DHT22;631;51.024;13.826;2024-03-22T15:44:12;16.80;99.90
1277;DHT22;631;51.024;13.826;2024-03-22T15:46:38;16.80;99.90
1277;DHT22;631;51.024;13.826;2024-03-22T15:49:04;16.80;99.90
1277;DHT22;631;51.024;13.826;2024-03-22T15:51:30;16.80;99.90
1277;DHT22;631;51.024;13.826;2024-03-22T15:53:55;16.80;99.90
1277;DHT22;631;51.024;13.826;2024-03-22T15:56:21;16.80;99.90
1277;DHT22;631;51.024;13.826;2024-03-22T15:58:46;16.70;99.90
1277;DHT22;631;51.024;13.826;2024-03-22T16:01:12;16.70;99.90
1277;DHT22;631;51.024;13.826;2024-03-22T16:03:37;16.60;99.90